ESGR

Skövde Airport

Skövde, Sweden
METAR ESGR 211420Z 10006KT CAVOK 22/M00 Q1025
Observed Flight Rules
May-21 @ 14:20 UTC (22 minutes ago) Visual Flight Rules
Wind Visibility Clouds
100° at 6 knots 10,000+ meters
  • Clear skies
Temperatures Readings
Current 22°C / 72°F
Dewpoint 0°C / 32°F
Humidity 23%
Altimeter 30.27" Hg
Pressure 1025 hPa
Elevation 105
METAR ESGR 211420Z 10006KT CAVOK 22/M00 Q1025
Observed Flight Rules
May-21 @ 14:20 UTC
(22 minutes ago)
VFR
Wind Visibility
100° at 6 knots 10,000+ meters
Clouds
  • Clear skies
Temperature Dewpoint
22°C / 72°F 0°C / 32°F
Humidity Altimeter Pressure
23% 30.27" Hg 1025 hPa